Asukamaru — JG5536 — position and weather

sailwx.info

Track history (hours):
 
Tides and Currents Weather Stations Pressure Air Temp Water Temp Dewpoint Dewpoint Depression Visibility Wind Speed Wind Dir Waves Ship Positions

Asukamaru

Last reported at 2016-Dec-11 00:33 UTC. Time now 2016-Dec-11 00:34 UTC.
Position N 35°38' E 139°45'.

Length 31 m; draft 3 m.

Type: Tug. MMSI: 431001145.

Date/timePositionNaut miles runAvg speedWind from/ knotsBaromVisibWave heightAir tempDewpointWater temp
2016-Dec-11 00:33N 35°38' E 139°45'0 0.0
2016-Dec-10 23:33N 35°38' E 139°45'0 0.0
2016-Dec-10 22:32N 35°38' E 139°45'0 0.0
2016-Dec-10 21:26N 35°38' E 139°45'0 0.0
2016-Dec-10 20:33N 35°38' E 139°45'0 0.0
2016-Dec-10 19:33N 35°38' E 139°45'0 0.0
2016-Dec-10 18:33N 35°38' E 139°45'0 0.0
2016-Dec-10 17:33N 35°38' E 139°45'0 0.0
2016-Dec-10 16:33N 35°38' E 139°45'0 0.0
2016-Dec-10 14:33N 35°38' E 139°45'0 0.0
2016-Dec-10 13:26N 35°38' E 139°45'1 0.3
2016-Dec-10 11:24N 35°38' E 139°46'2 2.6
2016-Dec-10 10:33N 35°36' E 139°48'0 0.0
2016-Dec-10 09:33N 35°36' E 139°48'1 0.9
2016-Dec-10 08:33N 35°35' E 139°47'1 1.0
2016-Dec-10 07:33N 35°36' E 139°47'2 1.9
2016-Dec-10 06:30N 35°38' E 139°45'0 0.0
2016-Dec-10 05:32N 35°38' E 139°45'0 0.0
2016-Dec-10 04:33N 35°38' E 139°45'0 0.0
2016-Dec-10 03:28N 35°38' E 139°45'0 0.0
2016-Dec-10 02:33N 35°38' E 139°45'0 0.0
2016-Dec-10 01:32N 35°38' E 139°45'0 0.0
2016-Dec-10 00:12N 35°38' E 139°45'2 3.3
2016-Dec-09 23:33N 35°36' E 139°47'1 0.7
2016-Dec-09 22:33N 35°36' E 139°48'1 0.8
2016-Dec-09 21:33N 35°35' E 139°47'3 3.1
2016-Dec-09 20:33N 35°38' E 139°45'0 0.0
2016-Dec-09 18:33N 35°38' E 139°45'0 0.0
2016-Dec-09 17:31N 35°38' E 139°45'0 0.0
2016-Dec-09 16:33N 35°38' E 139°45'0 0.0
2016-Dec-09 15:13N 35°38' E 139°45'0 0.0
2016-Dec-09 13:24N 35°38' E 139°45'0 0.0
2016-Dec-09 11:16N 35°38' E 139°45'0 0.0
2016-Dec-09 10:23N 35°38' E 139°45'0 0.0
2016-Dec-09 09:32N 35°38' E 139°45'0 0.0
2016-Dec-09 08:28N 35°38' E 139°45'3 3.2
2016-Dec-09 07:33N 35°36' E 139°47'3 2.9
2016-Dec-09 06:33N 35°38' E 139°45'0 0.0
2016-Dec-09 05:33N 35°38' E 139°45'0 0.0
2016-Dec-09 04:33N 35°38' E 139°45'0 0.0
2016-Dec-09 03:33N 35°38' E 139°45'0 0.0
2016-Dec-09 02:33N 35°38' E 139°45'0 0.2
2016-Dec-09 01:34N 35°38' E 139°46'2 2.0
2016-Dec-09 00:33N 35°37' E 139°48'1 0.6
2016-Dec-08 23:19N 35°37' E 139°48'1 0.8
2016-Dec-08 22:33N 35°36' E 139°48'1 0.8
2016-Dec-08 21:33N 35°35' E 139°47'3 3.1
2016-Dec-08 20:33N 35°38' E 139°45'0 0.0
2016-Dec-08 19:33N 35°38' E 139°45'0 0.0
2016-Dec-08 18:33N 35°38' E 139°45'0 0.0
2016-Dec-08 17:31N 35°38' E 139°45'0 0.0
2016-Dec-08 16:32N 35°38' E 139°45'0 0.0
2016-Dec-08 15:33N 35°38' E 139°45'0 0.0
2016-Dec-08 14:33N 35°38' E 139°45'0 0.0
2016-Dec-08 13:29N 35°38' E 139°45'0 0.0
2016-Dec-08 12:33N 35°38' E 139°45'0 0.0
2016-Dec-08 11:33N 35°38' E 139°45'0 0.0
2016-Dec-08 10:33N 35°38' E 139°45'0 0.0
2016-Dec-08 09:31N 35°38' E 139°45'0 0.0
2016-Dec-08 08:32N 35°38' E 139°45'0 0.0
2016-Dec-08 07:32N 35°38' E 139°45'0 0.0
2016-Dec-08 06:32N 35°38' E 139°45'0 0.0
2016-Dec-08 05:32N 35°38' E 139°45'0 0.0
2016-Dec-08 04:33N 35°38' E 139°45'0 0.0
2016-Dec-08 03:33N 35°38' E 139°45'0 0.0
2016-Dec-08 02:32N 35°38' E 139°45'0 0.0
2016-Dec-08 01:33N 35°38' E 139°45'0 0.0
2016-Dec-08 00:29N 35°38' E 139°45'0 0.0
2016-Dec-07 23:33N 35°38' E 139°45'0 0.0
2016-Dec-07 22:33N 35°38' E 139°45'0 0.0
2016-Dec-07 21:33N 35°38' E 139°45'0 0.0
2016-Dec-07 20:33N 35°38' E 139°45'0 0.0
2016-Dec-07 19:33N 35°38' E 139°45'0 0.0
2016-Dec-07 18:33N 35°38' E 139°45'0 0.0
2016-Dec-07 17:33N 35°38' E 139°45'0 0.0
2016-Dec-07 16:33N 35°38' E 139°45'0 0.1
2016-Dec-07 15:34N 35°38' E 139°45'5 4.9
2016-Dec-07 14:33N 35°34' E 139°49'3 2.6
2016-Dec-07 13:34N 35°36' E 139°47'3 2.6
2016-Dec-07 12:33N 35°34' E 139°49'3 2.5
2016-Dec-07 11:33N 35°35' E 139°47'1 0.9
2016-Dec-07 10:33N 35°36' E 139°46'2 2.0
2016-Dec-07 09:33N 35°38' E 139°45'0 0.0
2016-Dec-07 08:33N 35°38' E 139°45'0 0.0
2016-Dec-07 07:33N 35°38' E 139°45'0 0.0
2016-Dec-07 06:33N 35°38' E 139°45'0 0.0
2016-Dec-07 05:33N 35°38' E 139°45'0 0.0
2016-Dec-07 04:33N 35°38' E 139°45'0 0.0
2016-Dec-07 03:33N 35°38' E 139°45'0 0.0
2016-Dec-07 02:33N 35°38' E 139°45'0 0.0
2016-Dec-07 01:31N 35°38' E 139°45'0 0.0
2016-Dec-07 00:33N 35°38' E 139°45'0 0.0
2016-Dec-06 23:33N 35°38' E 139°45'0 0.0
2016-Dec-06 22:26N 35°38' E 139°45'0 0.0
2016-Dec-06 21:11N 35°38' E 139°45'0 0.0
2016-Dec-06 20:33N 35°38' E 139°45'0 0.0
2016-Dec-06 18:32N 35°38' E 139°45'0 0.0
2016-Dec-06 17:29N 35°38' E 139°45'0 0.0
2016-Dec-06 16:32N 35°38' E 139°45'0 0.0
2016-Dec-06 15:33N 35°38' E 139°45'0 0.0
2016-Dec-06 14:31N 35°38' E 139°45'4 3.9
2016-Dec-06 13:33N 35°35' E 139°48'3 3.3
2016-Dec-06 12:33N 35°38' E 139°46'0 0.4
2016-Dec-06 11:33N 35°38' E 139°45'0 0.0
2016-Dec-06 10:18N 35°38' E 139°45'0 0.0
2016-Dec-06 09:33N 35°38' E 139°45'0 0.0
2016-Dec-06 08:33N 35°38' E 139°45'0 0.0
2016-Dec-06 07:33N 35°38' E 139°45'0 0.0
2016-Dec-06 06:33N 35°38' E 139°45'0 0.0
2016-Dec-06 05:32N 35°38' E 139°45'0 0.0
2016-Dec-06 04:30N 35°38' E 139°45'0 0.0
2016-Dec-06 03:31N 35°38' E 139°45'0 0.0
2016-Dec-06 02:33N 35°38' E 139°45'0 0.0
2016-Dec-06 01:33N 35°38' E 139°45'0 0.0
2016-Dec-06 00:33N 35°38' E 139°45'0 0.0
2016-Dec-05 23:28N 35°38' E 139°46'3 3.0
2016-Dec-05 22:33N 35°36' E 139°48'1 1.1
2016-Dec-05 21:33N 35°36' E 139°46'2 1.9
2016-Dec-05 20:33N 35°38' E 139°45'0 0.0
2016-Dec-05 19:32N 35°38' E 139°45'0 0.0
2016-Dec-05 18:33N 35°38' E 139°45'0 0.0
2016-Dec-05 17:32N 35°38' E 139°45'0 0.0
2016-Dec-05 16:33N 35°38' E 139°45'0 0.0
2016-Dec-05 15:33N 35°38' E 139°45'0 0.0
2016-Dec-05 14:33N 35°38' E 139°45'0 0.0
2016-Dec-05 13:33N 35°38' E 139°45'0 0.0
2016-Dec-05 12:32N 35°38' E 139°45'0 0.0
2016-Dec-05 11:33N 35°38' E 139°45'0 0.0
2016-Dec-05 10:33N 35°38' E 139°45'0 0.0
2016-Dec-05 08:33N 35°38' E 139°45'0 0.0
2016-Dec-05 07:33N 35°38' E 139°45'0 0.0
2016-Dec-05 06:33N 35°38' E 139°45'0 0.0
2016-Dec-05 05:33N 35°38' E 139°45'0 0.0
2016-Dec-05 04:33N 35°38' E 139°45'0 0.0
2016-Dec-05 03:33N 35°38' E 139°45'0 0.0
2016-Dec-05 02:33N 35°38' E 139°45'0 0.0
2016-Dec-05 01:33N 35°38' E 139°45'0 0.0
2016-Dec-05 00:33N 35°38' E 139°45'0 0.0
2016-Dec-04 23:33N 35°38' E 139°45'0 0.0
2016-Dec-04 22:33N 35°38' E 139°45'0 0.0
2016-Dec-04 21:33N 35°38' E 139°45'0 0.0
2016-Dec-04 20:33N 35°38' E 139°45'0 0.0
2016-Dec-04 19:33N 35°38' E 139°45'0 0.0
2016-Dec-04 18:33N 35°38' E 139°45'0 0.0
2016-Dec-04 17:33N 35°38' E 139°45'0 0.0
2016-Dec-04 16:33N 35°38' E 139°45'0 0.0
2016-Dec-04 15:33N 35°38' E 139°45'0 0.0
2016-Dec-04 14:33N 35°38' E 139°45'0 0.0
2016-Dec-04 13:33N 35°38' E 139°45'0 0.0
2016-Dec-04 12:33N 35°38' E 139°45'0 0.0
2016-Dec-04 11:15N 35°38' E 139°45'0 0.0
2016-Dec-04 10:33N 35°38' E 139°45'0 0.0
2016-Dec-04 09:28N 35°38' E 139°45'0 0.0
2016-Dec-04 08:33N 35°38' E 139°45'0 0.0
2016-Dec-04 07:33N 35°38' E 139°45'0 0.0
2016-Dec-04 06:33N 35°38' E 139°45'0 0.0
2016-Dec-04 05:33N 35°38' E 139°45'0 0.0
2016-Dec-04 04:30N 35°38' E 139°45'0 0.0
2016-Dec-04 03:33N 35°38' E 139°45'0 0.0
2016-Dec-04 02:33N 35°38' E 139°45'0 0.0
2016-Dec-04 01:32N 35°38' E 139°45'0 0.0
2016-Dec-04 00:33N 35°38' E 139°45'0 0.0
2016-Dec-03 23:33N 35°38' E 139°45'0 0.0
2016-Dec-03 22:33N 35°38' E 139°45'0 0.0
2016-Dec-03 21:32N 35°38' E 139°45'0 0.0
2016-Dec-03 20:30N 35°38' E 139°45'0 0.0
2016-Dec-03 19:33N 35°38' E 139°45'0 0.0
2016-Dec-03 18:33N 35°38' E 139°45'0 0.0
2016-Dec-03 17:33N 35°38' E 139°45'0 0.0
2016-Dec-03 16:32N 35°38' E 139°45'0 0.0
2016-Dec-03 15:22N 35°38' E 139°45'0 0.0
2016-Dec-03 14:32N 35°38' E 139°45'0 0.0
2016-Dec-03 13:13N 35°38' E 139°45'0 0.0
2016-Dec-03 11:33N 35°38' E 139°45'0 0.0
2016-Dec-03 10:16N 35°38' E 139°45'0 0.0
2016-Dec-03 09:31N 35°38' E 139°45'0 0.0
2016-Dec-03 08:34N 35°38' E 139°45'1 1.4
2016-Dec-03 07:33N 35°37' E 139°46'1 1.4
2016-Dec-03 06:33N 35°38' E 139°45'0 0.0
2016-Dec-03 05:31N 35°38' E 139°45'0 0.0
2016-Dec-03 04:33N 35°38' E 139°45'0 0.0
2016-Dec-03 03:33N 35°38' E 139°45'0 0.0
2016-Dec-03 02:33N 35°38' E 139°45'0 0.0
2016-Dec-03 01:11N 35°38' E 139°45'0 0.0
2016-Dec-03 00:33N 35°38' E 139°45'0 0.0
2016-Dec-02 23:33N 35°38' E 139°45'2 2.1
2016-Dec-02 22:33N 35°36' E 139°46'2 2.3
2016-Dec-02 21:33N 35°34' E 139°48'3 3.4
2016-Dec-02 20:33N 35°37' E 139°46'1 0.9
2016-Dec-02 19:33N 35°38' E 139°45'0 0.0
2016-Dec-02 18:33N 35°38' E 139°45'0 0.0
2016-Dec-02 17:32N 35°38' E 139°45'0 0.0
2016-Dec-02 16:28N 35°38' E 139°45'0 0.0
2016-Dec-02 15:28N 35°38' E 139°45'0 0.0
2016-Dec-02 14:31N 35°38' E 139°45'0 0.0
2016-Dec-02 13:30N 35°38' E 139°45'0 0.0
2016-Dec-02 12:32N 35°38' E 139°45'0 0.0
2016-Dec-02 11:13N 35°38' E 139°45'0 0.0
2016-Dec-02 10:22N 35°38' E 139°45'2 2.3
2016-Dec-02 09:33N 35°37' E 139°47'1 1.0
2016-Dec-02 08:33N 35°36' E 139°47'1 1.0
2016-Dec-02 07:33N 35°37' E 139°46'2 1.7
2016-Dec-02 06:33N 35°38' E 139°45'0 0.0
2016-Dec-02 05:32N 35°38' E 139°45'0 0.0
2016-Dec-02 04:31N 35°38' E 139°45'0 0.0
2016-Dec-02 03:33N 35°38' E 139°45'0 0.0
2016-Dec-02 02:30N 35°38' E 139°45'0 0.0
2016-Dec-02 01:33N 35°38' E 139°45'0 0.0
2016-Dec-02 00:33N 35°38' E 139°45'0 0.0
2016-Dec-01 23:33N 35°38' E 139°45'0 0.0
2016-Dec-01 22:31N 35°38' E 139°45'0 0.0
2016-Dec-01 21:31N 35°38' E 139°45'0 0.0
2016-Dec-01 20:32N 35°38' E 139°45'0 0.0
2016-Dec-01 19:30N 35°38' E 139°45'0 0.0
2016-Dec-01 18:31N 35°38' E 139°45'0 0.0
2016-Dec-01 17:30N 35°38' E 139°45'0 0.0
2016-Dec-01 16:30N 35°38' E 139°45'0 0.0
2016-Dec-01 15:33N 35°38' E 139°45'0 0.0
2016-Dec-01 14:33N 35°38' E 139°45'0 0.0
2016-Dec-01 13:33N 35°38' E 139°45'0 0.0
2016-Dec-01 11:23N 35°38' E 139°45'0 0.0
2016-Dec-01 10:33N 35°38' E 139°45'0 0.0
2016-Dec-01 09:33N 35°38' E 139°45'0 0.0
2016-Dec-01 08:33N 35°38' E 139°45'3 2.9
2016-Dec-01 07:33N 35°36' E 139°47'3 2.9
2016-Dec-01 06:32N 35°38' E 139°45'0 0.0
2016-Dec-01 05:33N 35°38' E 139°45'0 0.0
2016-Dec-01 04:33N 35°38' E 139°45'0 0.0
2016-Dec-01 03:33N 35°38' E 139°45'0 0.0
2016-Dec-01 02:31N 35°38' E 139°45'0 0.0
2016-Dec-01 01:33N 35°38' E 139°45'0 0.0
2016-Dec-01 00:32N 35°38' E 139°45'  
Track history (hours):
 
Tides and Currents Weather Stations Pressure Air Temp Water Temp Dewpoint Dewpoint Depression Visibility Wind Speed Wind Dir Waves Ship Positions

Asukamaru

Last reported at 2016-Dec-11 00:33 UTC. Time now 2016-Dec-11 00:34 UTC.
Position N 35°38' E 139°45'.

Length 31 m; draft 3 m.

Type: Tug. MMSI: 431001145.

Date/timePositionNaut miles runAvg speedWind from/ knotsBaromVisibWave heightAir tempDewpointWater temp
2016-Dec-11 00:33N 35°38' E 139°45'0 0.0
2016-Dec-10 23:33N 35°38' E 139°45'0 0.0
2016-Dec-10 22:32N 35°38' E 139°45'0 0.0
2016-Dec-10 21:26N 35°38' E 139°45'0 0.0
2016-Dec-10 20:33N 35°38' E 139°45'0 0.0
2016-Dec-10 19:33N 35°38' E 139°45'0 0.0
2016-Dec-10 18:33N 35°38' E 139°45'0 0.0
2016-Dec-10 17:33N 35°38' E 139°45'0 0.0
2016-Dec-10 16:33N 35°38' E 139°45'0 0.0
2016-Dec-10 14:33N 35°38' E 139°45'0 0.0
2016-Dec-10 13:26N 35°38' E 139°45'1 0.3
2016-Dec-10 11:24N 35°38' E 139°46'2 2.6
2016-Dec-10 10:33N 35°36' E 139°48'0 0.0
2016-Dec-10 09:33N 35°36' E 139°48'1 0.9
2016-Dec-10 08:33N 35°35' E 139°47'1 1.0
2016-Dec-10 07:33N 35°36' E 139°47'2 1.9
2016-Dec-10 06:30N 35°38' E 139°45'0 0.0
2016-Dec-10 05:32N 35°38' E 139°45'0 0.0
2016-Dec-10 04:33N 35°38' E 139°45'0 0.0
2016-Dec-10 03:28N 35°38' E 139°45'0 0.0
2016-Dec-10 02:33N 35°38' E 139°45'0 0.0
2016-Dec-10 01:32N 35°38' E 139°45'0 0.0
2016-Dec-10 00:12N 35°38' E 139°45'2 3.3
2016-Dec-09 23:33N 35°36' E 139°47'1 0.7
2016-Dec-09 22:33N 35°36' E 139°48'1 0.8
2016-Dec-09 21:33N 35°35' E 139°47'3 3.1
2016-Dec-09 20:33N 35°38' E 139°45'0 0.0
2016-Dec-09 18:33N 35°38' E 139°45'0 0.0
2016-Dec-09 17:31N 35°38' E 139°45'0 0.0
2016-Dec-09 16:33N 35°38' E 139°45'0 0.0
2016-Dec-09 15:13N 35°38' E 139°45'0 0.0
2016-Dec-09 13:24N 35°38' E 139°45'0 0.0
2016-Dec-09 11:16N 35°38' E 139°45'0 0.0
2016-Dec-09 10:23N 35°38' E 139°45'0 0.0
2016-Dec-09 09:32N 35°38' E 139°45'0 0.0
2016-Dec-09 08:28N 35°38' E 139°45'3 3.2
2016-Dec-09 07:33N 35°36' E 139°47'3 2.9
2016-Dec-09 06:33N 35°38' E 139°45'0 0.0
2016-Dec-09 05:33N 35°38' E 139°45'0 0.0
2016-Dec-09 04:33N 35°38' E 139°45'0 0.0
2016-Dec-09 03:33N 35°38' E 139°45'0 0.0
2016-Dec-09 02:33N 35°38' E 139°45'0 0.2
2016-Dec-09 01:34N 35°38' E 139°46'2 2.0
2016-Dec-09 00:33N 35°37' E 139°48'1 0.6
2016-Dec-08 23:19N 35°37' E 139°48'1 0.8
2016-Dec-08 22:33N 35°36' E 139°48'1 0.8
2016-Dec-08 21:33N 35°35' E 139°47'3 3.1
2016-Dec-08 20:33N 35°38' E 139°45'0 0.0
2016-Dec-08 19:33N 35°38' E 139°45'0 0.0
2016-Dec-08 18:33N 35°38' E 139°45'0 0.0
2016-Dec-08 17:31N 35°38' E 139°45'0 0.0
2016-Dec-08 16:32N 35°38' E 139°45'0 0.0
2016-Dec-08 15:33N 35°38' E 139°45'0 0.0
2016-Dec-08 14:33N 35°38' E 139°45'0 0.0
2016-Dec-08 13:29N 35°38' E 139°45'0 0.0
2016-Dec-08 12:33N 35°38' E 139°45'0 0.0
2016-Dec-08 11:33N 35°38' E 139°45'0 0.0
2016-Dec-08 10:33N 35°38' E 139°45'0 0.0
2016-Dec-08 09:31N 35°38' E 139°45'0 0.0
2016-Dec-08 08:32N 35°38' E 139°45'0 0.0
2016-Dec-08 07:32N 35°38' E 139°45'0 0.0
2016-Dec-08 06:32N 35°38' E 139°45'0 0.0
2016-Dec-08 05:32N 35°38' E 139°45'0 0.0
2016-Dec-08 04:33N 35°38' E 139°45'0 0.0
2016-Dec-08 03:33N 35°38' E 139°45'0 0.0
2016-Dec-08 02:32N 35°38' E 139°45'0 0.0
2016-Dec-08 01:33N 35°38' E 139°45'0 0.0
2016-Dec-08 00:29N 35°38' E 139°45'0 0.0
2016-Dec-07 23:33N 35°38' E 139°45'0 0.0
2016-Dec-07 22:33N 35°38' E 139°45'0 0.0
2016-Dec-07 21:33N 35°38' E 139°45'0 0.0
2016-Dec-07 20:33N 35°38' E 139°45'0 0.0
2016-Dec-07 19:33N 35°38' E 139°45'0 0.0
2016-Dec-07 18:33N 35°38' E 139°45'0 0.0
2016-Dec-07 17:33N 35°38' E 139°45'0 0.0
2016-Dec-07 16:33N 35°38' E 139°45'0 0.1
2016-Dec-07 15:34N 35°38' E 139°45'5 4.9
2016-Dec-07 14:33N 35°34' E 139°49'3 2.6
2016-Dec-07 13:34N 35°36' E 139°47'3 2.6
2016-Dec-07 12:33N 35°34' E 139°49'3 2.5
2016-Dec-07 11:33N 35°35' E 139°47'1 0.9
2016-Dec-07 10:33N 35°36' E 139°46'2 2.0
2016-Dec-07 09:33N 35°38' E 139°45'0 0.0
2016-Dec-07 08:33N 35°38' E 139°45'0 0.0
2016-Dec-07 07:33N 35°38' E 139°45'0 0.0
2016-Dec-07 06:33N 35°38' E 139°45'0 0.0
2016-Dec-07 05:33N 35°38' E 139°45'0 0.0
2016-Dec-07 04:33N 35°38' E 139°45'0 0.0
2016-Dec-07 03:33N 35°38' E 139°45'0 0.0
2016-Dec-07 02:33N 35°38' E 139°45'0 0.0
2016-Dec-07 01:31N 35°38' E 139°45'0 0.0
2016-Dec-07 00:33N 35°38' E 139°45'0 0.0
2016-Dec-06 23:33N 35°38' E 139°45'0 0.0
2016-Dec-06 22:26N 35°38' E 139°45'0 0.0
2016-Dec-06 21:11N 35°38' E 139°45'0 0.0
2016-Dec-06 20:33N 35°38' E 139°45'0 0.0
2016-Dec-06 18:32N 35°38' E 139°45'0 0.0
2016-Dec-06 17:29N 35°38' E 139°45'0 0.0
2016-Dec-06 16:32N 35°38' E 139°45'0 0.0
2016-Dec-06 15:33N 35°38' E 139°45'0 0.0
2016-Dec-06 14:31N 35°38' E 139°45'4 3.9
2016-Dec-06 13:33N 35°35' E 139°48'3 3.3
2016-Dec-06 12:33N 35°38' E 139°46'0 0.4
2016-Dec-06 11:33N 35°38' E 139°45'0 0.0
2016-Dec-06 10:18N 35°38' E 139°45'0 0.0
2016-Dec-06 09:33N 35°38' E 139°45'0 0.0
2016-Dec-06 08:33N 35°38' E 139°45'0 0.0
2016-Dec-06 07:33N 35°38' E 139°45'0 0.0
2016-Dec-06 06:33N 35°38' E 139°45'0 0.0
2016-Dec-06 05:32N 35°38' E 139°45'0 0.0
2016-Dec-06 04:30N 35°38' E 139°45'0 0.0
2016-Dec-06 03:31N 35°38' E 139°45'0 0.0
2016-Dec-06 02:33N 35°38' E 139°45'0 0.0
2016-Dec-06 01:33N 35°38' E 139°45'0 0.0
2016-Dec-06 00:33N 35°38' E 139°45'0 0.0
2016-Dec-05 23:28N 35°38' E 139°46'3 3.0
2016-Dec-05 22:33N 35°36' E 139°48'1 1.1
2016-Dec-05 21:33N 35°36' E 139°46'2 1.9
2016-Dec-05 20:33N 35°38' E 139°45'0 0.0
2016-Dec-05 19:32N 35°38' E 139°45'0 0.0
2016-Dec-05 18:33N 35°38' E 139°45'0 0.0
2016-Dec-05 17:32N 35°38' E 139°45'0 0.0
2016-Dec-05 16:33N 35°38' E 139°45'0 0.0
2016-Dec-05 15:33N 35°38' E 139°45'0 0.0
2016-Dec-05 14:33N 35°38' E 139°45'0 0.0
2016-Dec-05 13:33N 35°38' E 139°45'0 0.0
2016-Dec-05 12:32N 35°38' E 139°45'0 0.0
2016-Dec-05 11:33N 35°38' E 139°45'0 0.0
2016-Dec-05 10:33N 35°38' E 139°45'0 0.0
2016-Dec-05 08:33N 35°38' E 139°45'0 0.0
2016-Dec-05 07:33N 35°38' E 139°45'0 0.0
2016-Dec-05 06:33N 35°38' E 139°45'0 0.0
2016-Dec-05 05:33N 35°38' E 139°45'0 0.0
2016-Dec-05 04:33N 35°38' E 139°45'0 0.0
2016-Dec-05 03:33N 35°38' E 139°45'0 0.0
2016-Dec-05 02:33N 35°38' E 139°45'0 0.0
2016-Dec-05 01:33N 35°38' E 139°45'0 0.0
2016-Dec-05 00:33N 35°38' E 139°45'0 0.0
2016-Dec-04 23:33N 35°38' E 139°45'0 0.0
2016-Dec-04 22:33N 35°38' E 139°45'0 0.0
2016-Dec-04 21:33N 35°38' E 139°45'0 0.0
2016-Dec-04 20:33N 35°38' E 139°45'0 0.0
2016-Dec-04 19:33N 35°38' E 139°45'0 0.0
2016-Dec-04 18:33N 35°38' E 139°45'0 0.0
2016-Dec-04 17:33N 35°38' E 139°45'0 0.0
2016-Dec-04 16:33N 35°38' E 139°45'0 0.0
2016-Dec-04 15:33N 35°38' E 139°45'0 0.0
2016-Dec-04 14:33N 35°38' E 139°45'0 0.0
2016-Dec-04 13:33N 35°38' E 139°45'0 0.0
2016-Dec-04 12:33N 35°38' E 139°45'0 0.0
2016-Dec-04 11:15N 35°38' E 139°45'0 0.0
2016-Dec-04 10:33N 35°38' E 139°45'0 0.0
2016-Dec-04 09:28N 35°38' E 139°45'0 0.0
2016-Dec-04 08:33N 35°38' E 139°45'0 0.0
2016-Dec-04 07:33N 35°38' E 139°45'0 0.0
2016-Dec-04 06:33N 35°38' E 139°45'0 0.0
2016-Dec-04 05:33N 35°38' E 139°45'0 0.0
2016-Dec-04 04:30N 35°38' E 139°45'0 0.0
2016-Dec-04 03:33N 35°38' E 139°45'0 0.0
2016-Dec-04 02:33N 35°38' E 139°45'0 0.0
2016-Dec-04 01:32N 35°38' E 139°45'0 0.0
2016-Dec-04 00:33N 35°38' E 139°45'0 0.0
2016-Dec-03 23:33N 35°38' E 139°45'0 0.0
2016-Dec-03 22:33N 35°38' E 139°45'0 0.0
2016-Dec-03 21:32N 35°38' E 139°45'0 0.0
2016-Dec-03 20:30N 35°38' E 139°45'0 0.0
2016-Dec-03 19:33N 35°38' E 139°45'0 0.0
2016-Dec-03 18:33N 35°38' E 139°45'0 0.0
2016-Dec-03 17:33N 35°38' E 139°45'0 0.0
2016-Dec-03 16:32N 35°38' E 139°45'0 0.0
2016-Dec-03 15:22N 35°38' E 139°45'0 0.0
2016-Dec-03 14:32N 35°38' E 139°45'0 0.0
2016-Dec-03 13:13N 35°38' E 139°45'0 0.0
2016-Dec-03 11:33N 35°38' E 139°45'0 0.0
2016-Dec-03 10:16N 35°38' E 139°45'0 0.0
2016-Dec-03 09:31N 35°38' E 139°45'0 0.0
2016-Dec-03 08:34N 35°38' E 139°45'1 1.4
2016-Dec-03 07:33N 35°37' E 139°46'1 1.4
2016-Dec-03 06:33N 35°38' E 139°45'0 0.0
2016-Dec-03 05:31N 35°38' E 139°45'0 0.0
2016-Dec-03 04:33N 35°38' E 139°45'0 0.0
2016-Dec-03 03:33N 35°38' E 139°45'0 0.0
2016-Dec-03 02:33N 35°38' E 139°45'0 0.0
2016-Dec-03 01:11N 35°38' E 139°45'0 0.0
2016-Dec-03 00:33N 35°38' E 139°45'0 0.0
2016-Dec-02 23:33N 35°38' E 139°45'2 2.1
2016-Dec-02 22:33N 35°36' E 139°46'2 2.3
2016-Dec-02 21:33N 35°34' E 139°48'3 3.4
2016-Dec-02 20:33N 35°37' E 139°46'1 0.9
2016-Dec-02 19:33N 35°38' E 139°45'0 0.0
2016-Dec-02 18:33N 35°38' E 139°45'0 0.0
2016-Dec-02 17:32N 35°38' E 139°45'0 0.0
2016-Dec-02 16:28N 35°38' E 139°45'0 0.0
2016-Dec-02 15:28N 35°38' E 139°45'0 0.0
2016-Dec-02 14:31N 35°38' E 139°45'0 0.0
2016-Dec-02 13:30N 35°38' E 139°45'0 0.0
2016-Dec-02 12:32N 35°38' E 139°45'0 0.0
2016-Dec-02 11:13N 35°38' E 139°45'0 0.0
2016-Dec-02 10:22N 35°38' E 139°45'2 2.3
2016-Dec-02 09:33N 35°37' E 139°47'1 1.0
2016-Dec-02 08:33N 35°36' E 139°47'1 1.0
2016-Dec-02 07:33N 35°37' E 139°46'2 1.7
2016-Dec-02 06:33N 35°38' E 139°45'0 0.0
2016-Dec-02 05:32N 35°38' E 139°45'0 0.0
2016-Dec-02 04:31N 35°38' E 139°45'0 0.0
2016-Dec-02 03:33N 35°38' E 139°45'0 0.0
2016-Dec-02 02:30N 35°38' E 139°45'0 0.0
2016-Dec-02 01:33N 35°38' E 139°45'0 0.0
2016-Dec-02 00:33N 35°38' E 139°45'0 0.0
2016-Dec-01 23:33N 35°38' E 139°45'0 0.0
2016-Dec-01 22:31N 35°38' E 139°45'0 0.0
2016-Dec-01 21:31N 35°38' E 139°45'0 0.0
2016-Dec-01 20:32N 35°38' E 139°45'0 0.0
2016-Dec-01 19:30N 35°38' E 139°45'0 0.0
2016-Dec-01 18:31N 35°38' E 139°45'0 0.0
2016-Dec-01 17:30N 35°38' E 139°45'0 0.0
2016-Dec-01 16:30N 35°38' E 139°45'0 0.0
2016-Dec-01 15:33N 35°38' E 139°45'0 0.0
2016-Dec-01 14:33N 35°38' E 139°45'0 0.0
2016-Dec-01 13:33N 35°38' E 139°45'0 0.0
2016-Dec-01 11:23N 35°38' E 139°45'0 0.0
2016-Dec-01 10:33N 35°38' E 139°45'0 0.0
2016-Dec-01 09:33N 35°38' E 139°45'0 0.0
2016-Dec-01 08:33N 35°38' E 139°45'3 2.9
2016-Dec-01 07:33N 35°36' E 139°47'3 2.9
2016-Dec-01 06:32N 35°38' E 139°45'0 0.0
2016-Dec-01 05:33N 35°38' E 139°45'0 0.0
2016-Dec-01 04:33N 35°38' E 139°45'0 0.0
2016-Dec-01 03:33N 35°38' E 139°45'0 0.0
2016-Dec-01 02:31N 35°38' E 139°45'0 0.0
2016-Dec-01 01:33N 35°38' E 139°45'0 0.0
2016-Dec-01 00:32N 35°38' E 139°45'  

Dump ship's entire track history